Time;durP1;ratioP1;P1;durP2;ratioP2;P2;SDS_P1;SDS_P2;PMS_P1;PMS_P2;Temp;Humidity;BMP_temperature;BMP_pressure;BME280_temperature;BME280_humidity;BME280_pressure;Samples;Min_cycle;Max_cycle;Signal;HPM_P1;HPM_P2
2023/12/16 00:00:12;;;;;;;112.25;59.50;;;;;;;6.09;92.76;100445.66;5005662;28;20654;-69
2023/12/16 00:02:38;;;;;;;97.82;55.15;;;;;;;5.96;92.37;100434.59;4988784;28;20065;-69
2023/12/16 00:05:04;;;;;;;109.18;59.30;;;;;;;6.03;92.46;100448.16;5006209;28;20037;-69
2023/12/16 00:07:29;;;;;;;115.28;60.55;;;;;;;6.07;92.60;100462.88;5004388;28;20029;-69
2023/12/16 00:09:54;;;;;;;99.10;57.20;;;;;;;5.97;92.00;100446.13;5006812;28;20045;-69
2023/12/16 00:12:20;;;;;;;84.43;53.50;;;;;;;6.01;92.58;100451.00;5008668;28;20021;-69
2023/12/16 00:14:45;;;;;;;91.50;54.55;;;;;;;6.11;92.41;100480.28;5004642;28;20042;-69
2023/12/16 00:17:12;;;;;;;83.10;53.00;;;;;;;6.11;92.94;100469.59;5008512;28;20534;-72
2023/12/16 00:19:37;;;;;;;86.35;52.63;;;;;;;6.13;92.52;100464.91;5001644;28;20050;-69
2023/12/16 00:22:03;;;;;;;101.70;57.15;;;;;;;6.14;91.66;100467.44;5005334;28;20117;-69
2023/12/16 00:24:28;;;;;;;95.15;56.42;;;;;;;6.11;91.81;100457.03;5000197;28;20459;-69
2023/12/16 00:26:53;;;;;;;109.90;59.33;;;;;;;6.03;92.18;100434.78;5003027;28;20109;-69
2023/12/16 00:29:19;;;;;;;125.03;64.32;;;;;;;6.06;91.63;100440.66;5007155;28;20033;-69
2023/12/16 00:31:44;;;;;;;180.30;74.35;;;;;;;6.00;93.17;100429.75;5008132;28;20102;-70
2023/12/16 00:34:10;;;;;;;149.35;67.35;;;;;;;5.91;91.90;100412.81;5001677;28;20045;-70
2023/12/16 00:36:35;;;;;;;218.23;84.45;;;;;;;5.96;92.49;100437.25;5007137;28;20084;-70
2023/12/16 00:39:01;;;;;;;150.00;66.35;;;;;;;5.94;92.91;100430.38;5004948;28;20454;-70
2023/12/16 00:41:26;;;;;;;156.55;71.20;;;;;;;5.93;91.82;100428.69;5000964;28;20032;-71
2023/12/16 00:43:52;;;;;;;150.90;69.43;;;;;;;5.91;92.41;100420.00;4989277;28;20034;-70
2023/12/16 00:46:17;;;;;;;171.52;75.22;;;;;;;5.73;92.22;100393.34;5009518;28;20032;-71
2023/12/16 00:48:43;;;;;;;235.88;87.85;;;;;;;5.83;92.52;100411.94;5003576;28;20034;-70
2023/12/16 00:51:08;;;;;;;303.52;99.15;;;;;;;5.74;92.39;100410.22;4999932;28;20478;-70
2023/12/16 00:53:34;;;;;;;165.10;71.85;;;;;;;5.81;91.87;100429.97;5002784;28;20402;-70
2023/12/16 00:55:59;;;;;;;205.52;80.68;;;;;;;5.76;92.23;100437.63;5005886;28;20109;-70
2023/12/16 00:58:24;;;;;;;183.07;77.50;;;;;;;5.74;92.12;100447.63;5010862;28;20501;-70
2023/12/16 01:00:50;;;;;;;120.50;62.10;;;;;;;5.81;92.13;100451.34;5001783;28;20029;-70
2023/12/16 01:03:15;;;;;;;139.00;64.90;;;;;;;5.76;91.78;100445.63;5009895;28;20030;-72
2023/12/16 01:05:41;;;;;;;90.47;55.25;;;;;;;5.78;92.26;100436.47;4993106;28;20026;-70
2023/12/16 01:08:06;;;;;;;96.10;54.78;;;;;;;5.88;91.92;100461.28;5009063;28;20121;-70
2023/12/16 01:10:31;;;;;;;106.35;58.42;;;;;;;5.86;91.89;100460.59;5006708;28;20131;-69
2023/12/16 01:12:57;;;;;;;118.82;62.03;;;;;;;5.77;92.20;100440.13;5007775;28;20026;-70
2023/12/16 01:15:22;;;;;;;123.50;64.07;;;;;;;5.88;91.35;100469.28;5004100;28;20557;-70
2023/12/16 01:17:47;;;;;;;122.47;63.13;;;;;;;5.90;91.92;100461.97;5005165;28;20061;-71
2023/12/16 01:20:13;;;;;;;139.20;66.00;;;;;;;5.91;92.60;100465.47;5000220;28;20437;-70
2023/12/16 01:22:38;;;;;;;126.55;64.90;;;;;;;5.90;92.32;100467.31;5005096;28;20092;-69
2023/12/16 01:25:05;;;;;;;101.50;58.35;;;;;;;5.80;91.55;100449.66;4999139;28;20033;-69
2023/12/16 01:27:31;;;;;;;137.68;65.85;;;;;;;5.95;92.76;100470.34;5003023;28;20092;-71
2023/12/16 01:29:56;;;;;;;131.70;64.22;;;;;;;5.86;92.10;100460.59;5003656;28;20034;-70
2023/12/16 01:32:22;;;;;;;139.45;66.65;;;;;;;5.92;92.64;100480.53;5009986;28;20406;-70
2023/12/16 01:34:47;;;;;;;134.30;66.22;;;;;;;5.83;92.60;100471.59;5001316;28;20110;-73
2023/12/16 01:37:12;;;;;;;150.98;70.43;;;;;;;5.91;92.96;100490.38;5009706;28;20040;-71
2023/12/16 01:39:38;;;;;;;132.55;62.55;;;;;;;5.89;92.82;100486.19;4968231;28;20047;-70
2023/12/16 01:42:03;;;;;;;117.82;61.50;;;;;;;5.92;91.61;100486.72;5007426;28;20485;-70
2023/12/16 01:44:29;;;;;;;146.20;66.65;;;;;;;5.87;92.20;100475.66;5005902;28;20116;-71
2023/12/16 01:46:54;;;;;;;112.30;58.97;;;;;;;5.79;92.17;100469.41;5006686;28;20092;-72
2023/12/16 01:49:20;;;;;;;119.18;61.25;;;;;;;5.94;92.43;100494.56;5002229;28;20164;-70
2023/12/16 01:51:45;;;;;;;112.32;59.85;;;;;;;5.84;92.80;100467.94;5007257;28;20089;-70
2023/12/16 01:54:12;;;;;;;194.80;77.13;;;;;;;5.91;92.75;100473.47;5000674;28;20521;-70
2023/12/16 01:56:37;;;;;;;123.07;63.15;;;;;;;5.91;92.33;100468.97;5005856;28;20042;-70
2023/12/16 01:59:04;;;;;;;153.30;68.50;;;;;;;5.89;92.54;100470.13;5003265;28;20026;-70
2023/12/16 02:01:29;;;;;;;137.48;66.53;;;;;;;5.78;92.09;100454.34;4998063;28;20088;-70
2023/12/16 02:03:56;;;;;;;145.02;67.20;;;;;;;5.90;91.77;100471.81;5003848;28;20022;-69
2023/12/16 02:06:21;;;;;;;135.57;63.55;;;;;;;5.93;92.16;100479.50;5002766;28;20443;-70
2023/12/16 02:08:47;;;;;;;181.52;74.35;;;;;;;5.95;92.16;100474.88;5002151;28;20033;-69
2023/12/16 02:11:12;;;;;;;141.55;68.60;;;;;;;5.84;92.64;100445.66;5001419;28;20125;-70
2023/12/16 02:13:40;;;;;;;126.80;62.13;;;;;;;5.88;92.30;100465.81;5000221;28;20030;-69
2023/12/16 02:16:06;;;;;;;172.77;73.72;;;;;;;5.81;93.20;100460.19;5000165;28;20401;-69
2023/12/16 02:18:31;;;;;;;110.93;59.10;;;;;;;5.88;92.40;100468.47;5000354;28;20026;-69
2023/12/16 02:20:56;;;;;;;164.95;75.30;;;;;;;5.84;92.48;100467.06;4995393;28;20045;-69
2023/12/16 02:23:22;;;;;;;117.05;62.65;;;;;;;5.86;93.21;100465.13;5001087;28;20109;-69
2023/12/16 02:25:47;;;;;;;136.50;65.57;;;;;;;5.84;93.15;100456.38;5002420;28;20044;-70
2023/12/16 02:28:13;;;;;;;124.72;63.58;;;;;;;5.86;91.91;100457.09;5002457;28;20028;-69
2023/12/16 02:30:38;;;;;;;109.18;58.58;;;;;;;5.71;92.94;100439.94;5004536;28;20041;-69
2023/12/16 02:33:03;;;;;;;128.07;65.40;;;;;;;5.84;93.27;100461.72;5008228;28;20144;-69
2023/12/16 02:35:29;;;;;;;143.90;64.85;;;;;;;5.82;93.09;100442.31;4989924;28;20490;-69
2023/12/16 02:37:54;;;;;;;134.85;64.70;;;;;;;5.73;92.36;100427.25;5009992;28;20031;-69
2023/12/16 02:40:19;;;;;;;138.77;66.20;;;;;;;5.79;92.95;100453.34;5007467;28;20662;-69
2023/12/16 02:42:45;;;;;;;162.50;69.70;;;;;;;5.84;92.87;100445.66;4998974;28;20058;-69
2023/12/16 02:45:10;;;;;;;168.48;71.93;;;;;;;5.76;93.06;100448.31;4997174;28;20040;-69
2023/12/16 02:47:36;;;;;;;188.38;76.00;;;;;;;5.68;93.21;100440.22;5005287;28;20026;-69
2023/12/16 02:50:03;;;;;;;235.40;85.43;;;;;;;5.60;92.72;100423.16;5012174;28;20046;-69
2023/12/16 02:52:29;;;;;;;162.45;71.28;;;;;;;5.73;92.89;100438.78;5003211;28;20482;-69
2023/12/16 02:54:54;;;;;;;219.80;83.53;;;;;;;5.75;93.22;100441.28;5010188;28;20096;-69
2023/12/16 02:57:19;;;;;;;149.18;68.75;;;;;;;5.64;92.37;100434.38;5008240;28;20406;-69
2023/12/16 02:59:45;;;;;;;185.05;76.85;;;;;;;5.70;93.49;100443.59;5010280;28;20099;-69
2023/12/16 03:02:10;;;;;;;176.25;72.32;;;;;;;5.67;93.04;100438.56;5000661;28;20037;-69
2023/12/16 03:04:36;;;;;;;201.23;76.53;;;;;;;5.70;93.57;100438.25;5009653;28;20042;-69
2023/12/16 03:07:01;;;;;;;133.85;64.50;;;;;;;5.75;92.88;100441.28;4985718;28;20037;-69
2023/12/16 03:09:26;;;;;;;202.95;76.93;;;;;;;5.76;92.81;100442.97;5007852;28;20417;-69
2023/12/16 03:11:52;;;;;;;131.52;61.78;;;;;;;5.71;92.75;100437.25;5007769;28;20057;-69
2023/12/16 03:14:17;;;;;;;118.20;60.20;;;;;;;5.81;92.47;100451.34;5007707;28;20029;-71
2023/12/16 03:16:43;;;;;;;152.27;66.70;;;;;;;5.76;92.57;100438.47;5008097;28;20379;-69
2023/12/16 03:19:08;;;;;;;127.40;61.67;;;;;;;5.81;93.12;100446.00;5004974;28;20038;-69
2023/12/16 03:21:33;;;;;;;99.53;54.95;;;;;;;5.79;93.25;100440.00;4999499;28;20061;-71
2023/12/16 03:23:59;;;;;;;143.20;64.38;;;;;;;5.76;92.22;100449.16;5002873;28;20041;-69
2023/12/16 03:26:25;;;;;;;171.40;71.80;;;;;;;5.80;92.69;100455.00;5002102;28;20456;-69
2023/12/16 03:28:50;;;;;;;123.68;61.65;;;;;;;5.80;93.17;100449.66;5008608;28;20041;-69
2023/12/16 03:31:16;;;;;;;153.82;65.68;;;;;;;5.59;92.55;100418.81;4987240;28;20026;-69
2023/12/16 03:33:41;;;;;;;105.60;57.15;;;;;;;5.78;92.07;100449.00;5006219;28;20113;-69
2023/12/16 03:36:09;;;;;;;122.18;60.38;;;;;;;5.81;92.75;100452.16;5005978;28;20025;-69
2023/12/16 03:38:35;;;;;;;123.63;59.92;;;;;;;5.82;92.33;100458.38;5008678;28;20545;-69
2023/12/16 03:41:00;;;;;;;110.18;57.60;;;;;;;5.63;92.20;100427.34;5000605;28;20127;-69
2023/12/16 03:43:25;;;;;;;141.70;63.65;;;;;;;5.78;93.41;100451.66;5002630;28;20046;-69
2023/12/16 03:45:51;;;;;;;154.32;67.70;;;;;;;5.78;93.07;100468.56;5009778;28;20029;-69
2023/12/16 03:48:16;;;;;;;138.57;65.22;;;;;;;5.75;93.74;100460.84;5007558;28;20135;-70
2023/12/16 03:50:42;;;;;;;124.75;61.88;;;;;;;5.64;93.41;100461.13;5007743;28;20019;-69
2023/12/16 03:53:07;;;;;;;152.73;69.00;;;;;;;5.73;92.93;100475.34;4997177;28;20037;-71
2023/12/16 03:55:32;;;;;;;200.73;78.60;;;;;;;5.67;93.44;100481.34;5006266;28;20475;-69
2023/12/16 03:57:58;;;;;;;128.15;60.63;;;;;;;5.65;92.69;100472.66;5011277;28;20038;-69
2023/12/16 04:00:24;;;;;;;133.48;61.40;;;;;;;5.64;93.11;100465.59;5004611;28;20065;-69
2023/12/16 04:02:49;;;;;;;152.60;68.32;;;;;;;5.70;92.86;100470.31;5008323;28;20069;-69
2023/12/16 04:05:14;;;;;;;153.43;65.30;;;;;;;5.71;92.58;100472.00;5006002;28;20030;-69
2023/12/16 04:07:40;;;;;;;152.30;66.60;;;;;;;5.59;93.04;100464.25;5008635;28;20545;-70
2023/12/16 04:10:05;;;;;;;100.65;53.95;;;;;;;5.64;92.98;100470.97;5001848;28;20072;-70
2023/12/16 04:12:31;;;;;;;126.97;62.67;;;;;;;5.66;92.62;100468.97;5007244;28;20562;-70
2023/12/16 04:14:57;;;;;;;121.68;60.38;;;;;;;5.75;92.57;100473.34;5003091;28;20045;-70
2023/12/16 04:17:22;;;;;;;100.40;54.88;;;;;;;5.76;93.16;100480.41;5008185;28;20045;-70
2023/12/16 04:19:52;;;;;;;114.65;60.38;;;;;;;5.72;92.39;100466.50;5009530;28;20034;-70
2023/12/16 04:22:17;;;;;;;97.10;53.88;;;;;;;5.73;92.52;100475.34;5005745;28;20046;-70
2023/12/16 04:24:43;;;;;;;107.80;56.72;;;;;;;5.75;92.48;100489.41;4984001;28;20044;-70
2023/12/16 04:27:08;;;;;;;148.90;68.28;;;;;;;5.79;93.08;100501.47;5004602;28;20065;-70
2023/12/16 04:29:34;;;;;;;124.15;60.78;;;;;;;5.78;92.20;100505.97;5005201;28;20026;-70
2023/12/16 04:31:59;;;;;;;118.45;60.50;;;;;;;5.75;92.70;100510.78;5011522;28;20041;-70
2023/12/16 04:34:24;;;;;;;135.98;63.35;;;;;;;5.71;92.64;100498.75;5004458;28;20101;-70
2023/12/16 04:36:50;;;;;;;103.47;55.33;;;;;;;5.69;92.61;100495.38;5009193;28;20030;-70
2023/12/16 04:39:15;;;;;;;128.07;62.28;;;;;;;5.63;93.28;100488.81;5003224;28;20463;-71
2023/12/16 04:41:41;;;;;;;154.43;66.75;;;;;;;5.73;92.11;100507.44;5005309;28;20045;-71
2023/12/16 04:44:06;;;;;;;166.02;71.88;;;;;;;5.69;92.98;100512.28;4988833;28;20034;-71
2023/12/16 04:46:31;;;;;;;257.02;83.75;;;;;;;5.60;92.81;100503.34;5008016;28;20112;-71
2023/12/16 04:48:57;;;;;;;133.13;63.28;;;;;;;5.68;93.12;100507.06;5003306;28;20056;-71
2023/12/16 04:51:22;;;;;;;146.85;62.50;;;;;;;5.69;92.00;100501.59;5001793;28;20116;-71
2023/12/16 04:53:48;;;;;;;219.15;78.78;;;;;;;5.71;92.37;100514.78;4968147;28;20026;-70
2023/12/16 04:56:13;;;;;;;203.80;77.60;;;;;;;5.68;92.13;100520.44;4999209;28;20044;-71
2023/12/16 04:58:39;;;;;;;413.00;103.32;;;;;;;5.59;91.86;100512.38;5007639;28;20118;-71
2023/12/16 05:01:04;;;;;;;226.95;81.43;;;;;;;5.65;92.52;100523.44;5003529;28;20034;-71
2023/12/16 05:03:31;;;;;;;148.48;67.47;;;;;;;5.62;92.84;100516.56;5006138;28;20475;-71
2023/12/16 05:05:57;;;;;;;163.73;71.03;;;;;;;5.65;92.41;100520.75;5002682;28;20097;-71
2023/12/16 05:08:22;;;;;;;180.38;74.53;;;;;;;5.61;91.97;100514.88;5004764;28;20030;-71
2023/12/16 05:10:48;;;;;;;197.57;78.28;;;;;;;5.55;92.50;100516.31;5006773;28;20108;-71
2023/12/16 05:13:14;;;;;;;157.48;69.85;;;;;;;5.52;92.30;100519.31;5004293;28;20024;-71
2023/12/16 05:15:40;;;;;;;141.68;65.57;;;;;;;5.56;92.19;100523.34;5005382;28;20029;-73
2023/12/16 05:18:06;;;;;;;135.98;64.00;;;;;;;5.50;92.75;100515.97;4987255;28;20091;-71
2023/12/16 05:20:32;;;;;;;139.77;65.60;;;;;;;5.50;92.94;100512.47;5004083;28;20034;-71
2023/12/16 05:22:59;;;;;;;116.03;60.30;;;;;;;5.66;92.54;100527.75;4987941;28;20029;-71
2023/12/16 05:25:25;;;;;;;147.82;67.13;;;;;;;5.67;92.34;100518.75;5001601;28;20038;-71
2023/12/16 05:27:51;;;;;;;125.93;59.47;;;;;;;5.66;92.25;100506.38;5002368;28;20026;-71
2023/12/16 05:30:16;;;;;;;126.55;62.42;;;;;;;5.66;92.29;100509.06;5005826;28;20044;-70
2023/12/16 05:32:41;;;;;;;132.13;64.82;;;;;;;5.60;93.40;100508.69;5001880;28;20022;-70
2023/12/16 05:35:07;;;;;;;161.75;67.60;;;;;;;5.50;93.00;100497.25;4998962;28;20042;-70
2023/12/16 05:37:32;;;;;;;133.82;63.88;;;;;;;5.55;93.08;100505.63;5008985;28;20113;-71
2023/12/16 05:39:58;;;;;;;173.10;72.32;;;;;;;5.55;92.70;100520.84;5001842;28;20034;-70
2023/12/16 05:42:23;;;;;;;129.75;61.75;;;;;;;5.54;92.99;100530.69;5007557;28;20402;-70
2023/12/16 05:44:48;;;;;;;170.50;72.32;;;;;;;5.43;93.42;100506.06;5008776;28;20038;-71
2023/12/16 05:47:14;;;;;;;152.85;67.95;;;;;;;5.51;93.45;100520.31;5006325;28;20057;-70
2023/12/16 05:49:39;;;;;;;163.57;69.15;;;;;;;5.50;93.30;100512.47;5006083;28;20104;-70
2023/12/16 05:52:05;;;;;;;136.98;63.65;;;;;;;5.45;93.19;100499.56;5003644;28;20026;-70
2023/12/16 05:54:30;;;;;;;140.90;61.83;;;;;;;5.58;92.90;100525.88;5002868;28;20112;-71
2023/12/16 05:56:56;;;;;;;133.80;63.60;;;;;;;5.52;93.27;100527.34;5004683;28;20038;-71
2023/12/16 05:59:21;;;;;;;143.55;74.60;;;;;;;5.62;92.53;100531.75;5006875;28;20037;-70
2023/12/16 06:01:46;;;;;;;150.88;73.75;;;;;;;5.63;92.69;100533.41;4999711;28;20034;-70
2023/12/16 06:04:13;;;;;;;143.43;66.25;;;;;;;5.49;93.17;100519.63;5007293;28;20042;-70
2023/12/16 06:06:39;;;;;;;162.15;67.53;;;;;;;5.62;92.90;100531.75;5002450;28;20037;-71
2023/12/16 06:09:04;;;;;;;122.32;58.88;;;;;;;5.54;93.25;100519.16;4998945;28;20046;-71
2023/12/16 06:11:29;;;;;;;148.75;64.90;;;;;;;5.66;93.48;100551.81;5011680;28;20508;-71
2023/12/16 06:13:55;;;;;;;115.03;59.53;;;;;;;5.58;93.10;100537.41;5006705;28;20030;-70
2023/12/16 06:16:20;;;;;;;126.40;61.15;;;;;;;5.63;92.41;100544.94;5011773;28;20422;-71
2023/12/16 06:18:47;;;;;;;107.10;56.05;;;;;;;5.68;93.42;100547.16;5005323;28;20030;-70
2023/12/16 06:21:13;;;;;;;120.82;57.30;;;;;;;5.71;92.64;100552.19;5010241;28;20489;-71
2023/12/16 06:23:38;;;;;;;121.82;56.80;;;;;;;5.65;93.09;100558.19;5000567;28;20082;-71
2023/12/16 06:26:04;;;;;;;131.95;60.30;;;;;;;5.65;92.35;100547.50;5005813;28;20076;-70
2023/12/16 06:28:29;;;;;;;122.00;58.70;;;;;;;5.58;92.83;100542.75;4988505;28;20042;-71
2023/12/16 06:30:54;;;;;;;127.18;58.92;;;;;;;5.55;92.38;100532.34;5007369;28;20076;-71
2023/12/16 06:33:22;;;;;;;151.32;64.13;;;;;;;5.60;93.10;100546.09;5001285;28;20105;-71
2023/12/16 06:35:48;;;;;;;131.63;61.97;;;;;;;5.56;93.05;100550.09;4990436;28;20091;-71
2023/12/16 06:38:13;;;;;;;204.43;73.55;;;;;;;5.59;93.46;100571.16;5007172;28;20450;-72
2023/12/16 06:40:38;;;;;;;173.15;73.68;;;;;;;5.47;92.97;100555.50;4983504;28;20036;-71
2023/12/16 06:43:04;;;;;;;187.93;71.65;;;;;;;5.51;92.74;100564.88;5005346;28;20410;-70
2023/12/16 06:45:31;;;;;;;104.03;54.92;;;;;;;5.57;92.45;100567.81;5008290;28;20021;-70
2023/12/16 06:47:57;;;;;;;110.43;56.35;;;;;;;5.54;93.21;100562.75;5001840;28;20069;-72
2023/12/16 06:50:23;;;;;;;153.38;66.22;;;;;;;5.57;92.30;100562.47;5010918;28;20486;-74
2023/12/16 06:52:48;;;;;;;154.57;70.18;;;;;;;5.55;93.11;100568.97;5004138;28;20538;-71
2023/12/16 06:55:13;;;;;;;230.55;83.55;;;;;;;5.54;92.91;100567.25;5006088;28;20153;-72
2023/12/16 06:57:39;;;;;;;160.88;66.90;;;;;;;5.60;92.46;100566.66;5009305;28;20067;-71
2023/12/16 07:00:06;;;;;;;179.18;76.72;;;;;;;5.60;92.64;100566.66;5009313;28;20030;-71
2023/12/16 07:02:31;;;;;;;152.57;63.65;;;;;;;5.51;92.63;100563.06;5008350;28;20041;-71
2023/12/16 07:04:57;;;;;;;216.98;95.55;;;;;;;5.60;93.09;100575.50;5008475;28;20096;-71
2023/12/16 07:07:23;;;;;;;185.88;90.45;;;;;;;5.57;93.21;100578.50;5004799;28;20038;-71
2023/12/16 07:09:48;;;;;;;356.45;177.55;;;;;;;5.54;92.91;100568.09;5006876;28;20028;-70
2023/12/16 07:12:14;;;;;;;285.23;142.63;;;;;;;5.59;92.42;100581.84;5005580;28;20038;-74
2023/12/16 07:14:39;;;;;;;190.85;92.85;;;;;;;5.60;92.69;100570.16;5000641;28;20021;-72
2023/12/16 07:17:04;;;;;;;293.73;141.85;;;;;;;5.65;92.85;100579.56;5008405;28;20569;-72
2023/12/16 07:19:31;;;;;;;161.13;79.60;;;;;;;5.64;93.22;100573.38;5011475;28;20033;-72
2023/12/16 07:21:57;;;;;;;161.75;80.63;;;;;;;5.57;93.42;100570.47;4981224;28;20422;-71
2023/12/16 07:24:23;;;;;;;135.73;66.70;;;;;;;5.65;93.63;100574.22;4999723;28;20116;-71
2023/12/16 07:26:48;;;;;;;142.55;67.28;;;;;;;5.57;92.76;100557.13;5000467;28;20116;-71
2023/12/16 07:29:14;;;;;;;109.30;59.63;;;;;;;5.55;93.37;100559.09;5007827;28;20434;-72
2023/12/16 07:31:40;;;;;;;140.27;63.25;;;;;;;5.68;92.90;100584.56;4988037;28;20070;-71
2023/12/16 07:34:06;;;;;;;111.70;60.28;;;;;;;5.72;92.73;100591.31;4997844;28;20019;-71
2023/12/16 07:36:31;;;;;;;125.32;66.03;;;;;;;5.77;93.79;100589.84;5005978;28;20037;-71
2023/12/16 07:38:57;;;;;;;114.28;62.25;;;;;;;5.81;93.57;100601.09;5005073;28;20464;-71
2023/12/16 07:41:23;;;;;;;115.75;62.17;;;;;;;5.86;93.03;100604.16;5004466;28;20056;-71
2023/12/16 07:43:49;;;;;;;120.47;60.75;;;;;;;5.78;93.37;100596.88;5005606;28;20478;-71
2023/12/16 07:46:15;;;;;;;107.53;57.00;;;;;;;5.83;92.64;100599.94;5008681;28;20048;-71
2023/12/16 07:48:42;;;;;;;97.55;53.53;;;;;;;5.83;92.80;100597.25;4986434;28;20097;-71
2023/12/16 07:51:18;;;;;;;115.68;59.40;;;;;;;5.87;92.88;100595.13;4998408;28;20038;-71
2023/12/16 07:53:46;;;;;;;131.85;63.30;;;;;;;5.91;93.03;100608.03;5010526;28;20133;-71
2023/12/16 07:56:16;;;;;;;102.40;59.03;;;;;;;5.97;92.31;100611.94;4999474;28;20478;-71
2023/12/16 07:58:42;;;;;;;127.50;67.03;;;;;;;5.95;93.09;100603.22;5006780;28;20034;-71
2023/12/16 08:01:12;;;;;;;117.20;61.42;;;;;;;5.86;92.45;100588.13;5000789;28;20390;-71
2023/12/16 08:03:37;;;;;;;103.75;55.85;;;;;;;5.96;92.99;100604.88;5000540;28;20457;-72
2023/12/16 08:06:03;;;;;;;114.65;61.63;;;;;;;5.96;93.22;100611.09;4993727;28;20035;-72
2023/12/16 08:08:29;;;;;;;120.88;63.53;;;;;;;5.95;92.55;100608.59;5003624;28;20113;-73
2023/12/16 08:10:54;;;;;;;92.30;55.20;;;;;;;5.92;93.06;100608.88;4990386;28;20502;-73
2023/12/16 08:13:19;;;;;;;103.15;55.92;;;;;;;5.95;92.80;100613.94;4999603;28;20034;-73
2023/12/16 08:15:45;;;;;;;96.05;55.10;;;;;;;6.07;93.55;100626.03;5001289;28;20022;-72
2023/12/16 08:18:12;;;;;;;77.40;47.80;;;;;;;6.12;92.55;100631.75;5005983;28;20037;-72
2023/12/16 08:20:37;;;;;;;112.03;58.50;;;;;;;6.16;93.22;100628.59;4990153;28;20090;-71
2023/12/16 08:23:05;;;;;;;106.75;57.58;;;;;;;6.16;91.91;100633.97;4996124;28;20585;-72
2023/12/16 08:25:31;;;;;;;112.70;62.03;;;;;;;6.17;92.92;100629.47;5000946;28;20470;-73
2023/12/16 08:27:56;;;;;;;99.28;60.42;;;;;;;6.10;92.82;100617.69;5000791;28;20030;-72
2023/12/16 08:30:22;;;;;;;130.07;64.65;;;;;;;6.12;92.41;100634.44;5005566;28;20057;-73
2023/12/16 08:32:47;;;;;;;133.52;62.20;;;;;;;6.06;92.67;100625.22;4990554;28;20048;-72
2023/12/16 08:35:14;;;;;;;140.10;64.55;;;;;;;6.15;93.66;100644.81;4998623;28;20048;-72
2023/12/16 08:37:40;;;;;;;136.85;67.57;;;;;;;6.10;92.98;100634.59;5006258;28;20038;-73
2023/12/16 08:40:06;;;;;;;125.28;64.88;;;;;;;6.06;92.93;100629.72;5004199;28;20037;-73
2023/12/16 08:42:32;;;;;;;133.23;68.82;;;;;;;6.11;92.69;100630.91;5004301;28;20038;-73
2023/12/16 08:44:57;;;;;;;138.70;72.15;;;;;;;6.20;93.21;100651.41;5008876;28;20033;-72
2023/12/16 08:47:22;;;;;;;151.43;76.18;;;;;;;6.25;92.15;100650.94;5004610;28;20383;-72
2023/12/16 08:49:48;;;;;;;134.82;74.05;;;;;;;6.23;92.18;100652.94;4989724;28;20021;-73
2023/12/16 08:52:13;;;;;;;165.20;88.93;;;;;;;6.24;92.48;100649.25;5002782;28;20046;-72
2023/12/16 08:54:40;;;;;;;169.38;87.97;;;;;;;6.13;92.79;100626.28;5005672;28;20030;-73
2023/12/16 08:57:05;;;;;;;207.52;105.30;;;;;;;6.33;92.52;100661.66;5004348;28;20057;-73
2023/12/16 08:59:30;;;;;;;166.00;88.75;;;;;;;6.22;92.39;100637.84;5007267;28;20026;-72
2023/12/16 09:01:56;;;;;;;137.13;72.57;;;;;;;6.22;92.23;100643.22;5003029;28;20421;-73
2023/12/16 09:04:21;;;;;;;126.75;72.72;;;;;;;6.38;92.46;100670.06;5006002;28;20036;-73
2023/12/16 09:06:46;;;;;;;121.47;70.45;;;;;;;6.37;92.32;100680.94;4991513;28;20042;-72
2023/12/16 09:09:12;;;;;;;114.28;61.70;;;;;;;6.36;92.22;100672.06;5004666;28;20017;-72
2023/12/16 09:11:38;;;;;;;95.63;55.15;;;;;;;6.30;93.00;100667.34;5006551;28;20406;-73
2023/12/16 09:14:05;;;;;;;97.63;55.03;;;;;;;6.42;91.95;100684.81;5003345;28;20023;-73
2023/12/16 09:16:31;;;;;;;101.68;56.75;;;;;;;6.47;92.14;100695.06;5002571;28;20026;-73
2023/12/16 09:18:57;;;;;;;99.78;54.85;;;;;;;6.42;92.31;100681.31;4989312;28;20434;-73
2023/12/16 09:21:22;;;;;;;99.60;55.33;;;;;;;6.35;92.04;100673.06;4991924;28;20026;-72
2023/12/16 09:23:48;;;;;;;97.93;54.70;;;;;;;6.38;92.34;100691.47;4972524;28;20060;-73
2023/12/16 09:26:14;;;;;;;97.95;55.55;;;;;;;6.51;92.41;100691.91;4992566;28;20040;-73
2023/12/16 09:28:39;;;;;;;93.18;54.60;;;;;;;6.52;92.21;100688.25;4975460;28;20449;-74
2023/12/16 09:31:04;;;;;;;83.47;52.55;;;;;;;6.53;91.71;100695.28;4977647;28;20034;-72
2023/12/16 09:33:30;;;;;;;106.57;67.05;;;;;;;6.50;92.10;100674.19;4990837;28;20022;-72
2023/12/16 09:35:55;;;;;;;117.53;72.75;;;;;;;6.54;91.71;100680.88;4992801;28;20050;-73
2023/12/16 09:38:20;;;;;;;104.57;63.88;;;;;;;6.61;91.80;100681.94;4998893;28;20032;-72
2023/12/16 09:40:46;;;;;;;95.40;59.50;;;;;;;6.67;92.39;100681.31;4980187;28;20045;-74
2023/12/16 09:43:16;;;;;;;82.82;49.92;;;;;;;6.73;91.67;100686.03;5002329;28;20034;-72
2023/12/16 09:45:46;;;;;;;84.60;50.20;;;;;;;6.68;92.31;100666.91;4996087;28;20475;-72
2023/12/16 09:48:14;;;;;;;88.38;50.58;;;;;;;6.71;91.68;100665.75;4991584;28;20034;-72
2023/12/16 09:50:40;;;;;;;84.32;49.92;;;;;;;6.73;92.19;100653.91;4991075;28;20029;-72
2023/12/16 09:53:05;;;;;;;95.68;55.67;;;;;;;6.80;91.40;100673.69;4967642;28;20046;-72
2023/12/16 09:55:31;;;;;;;91.22;52.17;;;;;;;6.81;91.60;100667.31;4991531;28;20030;-72
2023/12/16 09:57:58;;;;;;;88.50;53.35;;;;;;;6.87;91.95;100663.16;4991611;28;20115;-73
2023/12/16 10:00:23;;;;;;;85.05;51.22;;;;;;;6.90;91.81;100661.03;4998583;28;20045;-73
2023/12/16 10:02:53;;;;;;;85.15;51.25;;;;;;;6.79;91.65;100637.19;5005344;28;20656;-73
2023/12/16 10:05:18;;;;;;;81.15;49.13;;;;;;;7.05;91.22;100668.44;4991973;28;20482;-74
2023/12/16 10:07:44;;;;;;;71.30;44.45;;;;;;;6.92;91.66;100648.31;4997516;28;20033;-73
2023/12/16 10:10:11;;;;;;;74.75;46.53;;;;;;;7.08;91.02;100662.75;5000646;28;20034;-73
2023/12/16 10:12:36;;;;;;;69.78;44.30;;;;;;;7.10;91.84;100639.31;4989424;28;20026;-73
2023/12/16 10:15:02;;;;;;;70.07;45.80;;;;;;;7.18;91.04;100636.66;4991432;28;20492;-74
2023/12/16 10:17:28;;;;;;;66.07;42.97;;;;;;;7.26;91.12;100639.38;4991403;28;20033;-73
2023/12/16 10:19:53;;;;;;;75.10;43.80;;;;;;;7.19;91.15;100635.69;4995683;28;20046;-73
2023/12/16 10:22:19;;;;;;;65.57;42.13;;;;;;;7.22;90.88;100619.25;4982436;28;20538;-73
2023/12/16 10:24:45;;;;;;;69.60;43.08;;;;;;;7.26;90.75;100607.22;4972151;28;20038;-72
2023/12/16 10:27:11;;;;;;;72.00;42.47;;;;;;;7.31;90.99;100586.09;5006366;28;20035;-72
2023/12/16 10:29:39;;;;;;;67.30;42.42;;;;;;;7.38;90.52;100584.44;4992472;28;20177;-73
2023/12/16 10:32:08;;;;;;;66.25;43.80;;;;;;;7.51;91.02;100595.53;4990821;28;20030;-72
2023/12/16 10:34:33;;;;;;;69.43;45.90;;;;;;;7.60;90.51;100594.53;4991473;28;20034;-72
2023/12/16 10:37:06;;;;;;;73.20;47.20;;;;;;;7.78;90.16;100592.53;4993510;28;20375;-73
2023/12/16 10:39:32;;;;;;;55.92;37.25;;;;;;;7.59;89.98;100568.72;4990467;28;20045;-72
2023/12/16 10:41:57;;;;;;;51.63;34.97;;;;;;;7.74;89.68;100599.25;4990943;28;20026;-72
2023/12/16 10:44:23;;;;;;;47.60;33.97;;;;;;;7.89;89.44;100596.72;4990053;28;20053;-73
2023/12/16 10:46:51;;;;;;;51.13;34.15;;;;;;;7.95;89.42;100596.03;4991432;28;20773;-73
2023/12/16 10:49:17;;;;;;;42.75;30.48;;;;;;;7.90;88.26;100596.56;4991335;28;20113;-72
2023/12/16 10:51:44;;;;;;;38.95;28.85;;;;;;;7.84;88.51;100591.84;4991309;28;20458;-73
2023/12/16 10:54:21;;;;;;;54.05;35.80;;;;;;;7.93;87.72;100590.88;4975265;28;20026;-73
2023/12/16 10:56:52;;;;;;;38.13;27.67;;;;;;;8.00;87.39;100591.88;4977849;28;20097;-73
2023/12/16 10:59:23;;;;;;;34.53;24.55;;;;;;;7.76;85.82;100594.53;4994163;28;20037;-73
2023/12/16 11:01:56;;;;;;;31.08;23.23;;;;;;;7.71;85.82;100591.53;4979371;28;20700;-73
2023/12/16 11:04:30;;;;;;;36.83;24.27;;;;;;;7.86;85.66;100605.94;4994496;28;20030;-72